createdAt,value
2019-02-22T00:00:49.094Z,100.00
2019-02-22T00:03:17.675Z,100.00
2019-02-22T00:05:46.238Z,100.00
2019-02-22T00:08:14.948Z,100.00
2019-02-22T00:10:43.482Z,100.00
2019-02-22T00:13:12.162Z,100.00
2019-02-22T00:15:40.787Z,100.00
2019-02-22T00:18:09.313Z,100.00
2019-02-22T00:20:37.842Z,100.00
2019-02-22T00:23:06.432Z,100.00
2019-02-22T00:25:34.952Z,100.00
2019-02-22T00:28:03.511Z,100.00
2019-02-22T00:30:32.109Z,100.00
2019-02-22T00:33:00.662Z,100.00
2019-02-22T00:35:29.188Z,100.00
2019-02-22T00:37:57.989Z,100.00
2019-02-22T00:40:26.542Z,100.00
2019-02-22T00:42:55.152Z,100.00
2019-02-22T00:45:23.660Z,100.00
2019-02-22T00:47:52.233Z,100.00
2019-02-22T00:50:21.229Z,100.00
2019-02-22T00:52:49.811Z,100.00
2019-02-22T00:55:18.346Z,100.00
2019-02-22T00:57:46.909Z,100.00
2019-02-22T01:00:15.535Z,100.00
2019-02-22T01:02:44.080Z,100.00
2019-02-22T01:05:12.656Z,100.00
2019-02-22T01:07:41.797Z,100.00
2019-02-22T01:10:10.311Z,100.00
2019-02-22T01:12:38.910Z,100.00
2019-02-22T01:15:07.742Z,100.00
2019-02-22T01:17:36.316Z,100.00
2019-02-22T01:20:06.018Z,100.00
2019-02-22T01:22:34.598Z,100.00
2019-02-22T01:25:03.114Z,100.00
2019-02-22T01:27:31.697Z,100.00
2019-02-22T01:30:00.207Z,100.00
2019-02-22T01:32:28.810Z,100.00
2019-02-22T01:34:57.330Z,100.00
2019-02-22T01:37:25.906Z,100.00
2019-02-22T01:39:54.841Z,100.00
2019-02-22T01:42:23.395Z,100.00
2019-02-22T01:44:51.908Z,100.00
2019-02-22T01:47:20.528Z,100.00
2019-02-22T01:49:49.101Z,100.00
2019-02-22T01:52:17.666Z,100.00
2019-02-22T01:54:46.198Z,100.00
2019-02-22T01:57:14.799Z,100.00
2019-02-22T01:59:43.299Z,100.00
2019-02-22T02:02:11.855Z,100.00
2019-02-22T02:04:40.378Z,100.00
2019-02-22T02:07:08.936Z,100.00
2019-02-22T02:09:37.518Z,100.00
2019-02-22T02:12:06.143Z,100.00
2019-02-22T02:14:34.713Z,100.00
2019-02-22T02:17:03.270Z,100.00
2019-02-22T02:19:31.884Z,100.00
2019-02-22T02:22:00.478Z,100.00
2019-02-22T02:24:28.986Z,100.00
2019-02-22T02:26:57.540Z,100.00
2019-02-22T02:29:26.055Z,100.00
2019-02-22T02:31:54.611Z,100.00
2019-02-22T02:34:23.116Z,100.00
2019-02-22T02:36:51.738Z,100.00
2019-02-22T02:39:20.252Z,100.00
2019-02-22T02:41:48.870Z,100.00
2019-02-22T02:44:17.373Z,100.00
2019-02-22T02:46:45.944Z,100.00
2019-02-22T02:49:14.439Z,100.00
2019-02-22T02:51:43.008Z,100.00
2019-02-22T02:54:11.897Z,100.00
2019-02-22T02:56:40.820Z,100.00
2019-02-22T02:59:09.376Z,100.00
2019-02-22T03:01:37.930Z,100.00
2019-02-22T03:04:06.447Z,100.00
2019-02-22T03:06:36.663Z,100.00
2019-02-22T03:09:06.667Z,100.00
2019-02-22T03:11:35.298Z,100.00
2019-02-22T03:14:03.820Z,100.00
2019-02-22T03:16:32.395Z,100.00
2019-02-22T03:19:00.915Z,100.00
2019-02-22T03:21:29.454Z,100.00
2019-02-22T03:23:57.969Z,100.00
2019-02-22T03:26:26.511Z,100.00
2019-02-22T03:28:55.034Z,100.00
2019-02-22T03:31:23.590Z,100.00
2019-02-22T03:33:52.149Z,100.00
2019-02-22T03:36:21.044Z,100.00
2019-02-22T03:38:49.912Z,100.00
2019-02-22T03:41:18.520Z,100.00
2019-02-22T03:43:47.046Z,100.00
2019-02-22T03:46:15.629Z,100.00
2019-02-22T03:48:44.145Z,100.00
2019-02-22T03:51:12.687Z,100.00
2019-02-22T03:53:42.906Z,100.00
2019-02-22T03:56:11.495Z,100.00
2019-02-22T03:58:40.114Z,100.00
2019-02-22T04:01:08.659Z,100.00
2019-02-22T04:03:37.256Z,100.00
2019-02-22T04:06:05.828Z,100.00
2019-02-22T04:08:34.386Z,100.00
2019-02-22T04:11:02.921Z,100.00
2019-02-22T04:13:31.425Z,100.00
2019-02-22T04:16:00.032Z,100.00
2019-02-22T04:18:28.574Z,100.00
2019-02-22T04:20:57.175Z,100.00
2019-02-22T04:23:25.689Z,100.00
2019-02-22T04:25:54.217Z,100.00
2019-02-22T04:28:22.752Z,100.00
2019-02-22T04:30:51.306Z,100.00
2019-02-22T04:33:19.823Z,100.00
2019-02-22T04:35:48.378Z,100.00
2019-02-22T04:38:16.962Z,100.00
2019-02-22T04:40:45.458Z,100.00
2019-02-22T04:43:14.098Z,100.00
2019-02-22T04:45:42.589Z,100.00
2019-02-22T04:48:11.146Z,100.00
2019-02-22T04:50:39.656Z,100.00
2019-02-22T04:53:08.204Z,100.00
2019-02-22T04:55:36.740Z,100.00
2019-02-22T04:58:05.323Z,100.00
2019-02-22T05:00:33.870Z,100.00
2019-02-22T05:03:02.448Z,100.00
2019-02-22T05:05:30.949Z,100.00
2019-02-22T05:07:59.527Z,100.00
2019-02-22T05:10:28.044Z,100.00
2019-02-22T05:12:56.614Z,100.00
2019-02-22T05:15:26.005Z,100.00
2019-02-22T05:17:54.578Z,100.00
2019-02-22T05:20:23.079Z,100.00
2019-02-22T05:23:02.995Z,100.00
2019-02-22T05:25:21.900Z,100.00
2019-02-22T05:27:50.495Z,100.00
2019-02-22T05:30:19.013Z,100.00
2019-02-22T05:32:47.590Z,100.00
2019-02-22T05:35:16.087Z,100.00
2019-02-22T05:37:44.647Z,100.00
2019-02-22T05:40:13.153Z,100.00
2019-02-22T05:42:41.816Z,100.00
2019-02-22T05:45:10.369Z,100.00
2019-02-22T05:47:38.999Z,100.00
2019-02-22T05:50:07.542Z,100.00
2019-02-22T05:52:36.129Z,100.00
2019-02-22T05:55:05.077Z,100.00
2019-02-22T05:57:33.608Z,100.00
2019-02-22T06:00:02.657Z,100.00
2019-02-22T06:02:33.710Z,100.00
2019-02-22T06:05:01.456Z,100.00
2019-02-22T06:07:30.060Z,100.00
2019-02-22T06:09:58.574Z,100.00
2019-02-22T06:12:34.507Z,100.00
2019-02-22T06:14:57.414Z,100.00
2019-02-22T06:17:25.969Z,100.00
2019-02-22T06:19:54.538Z,100.00
2019-02-22T06:22:29.733Z,100.00
2019-02-22T06:24:53.389Z,100.00
2019-02-22T06:27:21.913Z,100.00
2019-02-22T06:29:50.488Z,100.00
2019-02-22T06:32:19.046Z,100.00
2019-02-22T06:34:47.626Z,100.00
2019-02-22T06:37:16.144Z,100.00
2019-02-22T06:39:44.730Z,100.00
2019-02-22T06:42:13.337Z,100.00
2019-02-22T06:44:41.905Z,100.00
2019-02-22T06:47:10.451Z,100.00
2019-02-22T06:49:39.024Z,100.00
2019-02-22T06:52:07.557Z,100.00
2019-02-22T06:54:36.140Z,100.00
2019-02-22T06:57:04.743Z,100.00
2019-02-22T06:59:33.342Z,100.00
2019-02-22T07:02:01.903Z,100.00
2019-02-22T07:04:30.452Z,100.00
2019-02-22T07:07:00.125Z,100.00
2019-02-22T07:09:28.663Z,100.00
2019-02-22T07:11:58.834Z,100.00
2019-02-22T07:14:27.444Z,100.00
2019-02-22T07:16:55.964Z,100.00
2019-02-22T07:19:24.530Z,100.00
2019-02-22T07:21:55.428Z,100.00
2019-02-22T07:24:24.382Z,100.00
2019-02-22T07:26:52.911Z,100.00
2019-02-22T07:29:22.341Z,100.00
2019-02-22T07:31:50.917Z,100.00
2019-02-22T07:34:19.879Z,100.00
2019-02-22T07:36:48.405Z,100.00
2019-02-22T07:39:27.520Z,100.00
2019-02-22T07:41:47.207Z,100.00
2019-02-22T07:44:16.206Z,100.00
2019-02-22T07:46:44.740Z,100.00
2019-02-22T07:49:16.485Z,100.00
2019-02-22T07:51:45.015Z,100.00
2019-02-22T07:54:13.642Z,100.00
2019-02-22T07:56:42.160Z,100.00
2019-02-22T07:59:11.149Z,100.00
2019-02-22T08:01:47.248Z,100.00
2019-02-22T08:04:09.972Z,100.00
2019-02-22T08:06:38.596Z,100.00
2019-02-22T08:09:07.575Z,100.00
2019-02-22T08:11:36.105Z,100.00
2019-02-22T08:14:04.779Z,100.00
2019-02-22T08:16:33.358Z,100.00
2019-02-22T08:19:02.134Z,100.00
2019-02-22T08:21:30.703Z,100.00
2019-02-22T08:23:59.312Z,100.00
2019-02-22T08:26:27.821Z,100.00
2019-02-22T08:28:56.385Z,100.00
2019-02-22T08:31:24.914Z,100.00
2019-02-22T08:33:53.517Z,100.00
2019-02-22T08:36:22.039Z,100.00
2019-02-22T08:38:50.624Z,100.00
2019-02-22T08:41:19.173Z,100.00
2019-02-22T08:43:47.917Z,100.00
2019-02-22T08:46:16.458Z,100.00
2019-02-22T08:48:45.127Z,100.00
2019-02-22T08:51:13.646Z,100.00
2019-02-22T08:53:42.261Z,100.00
2019-02-22T08:56:10.775Z,100.00
2019-02-22T08:58:39.375Z,100.00
2019-02-22T09:01:07.935Z,100.00
2019-02-22T09:03:36.537Z,100.00
2019-02-22T09:06:05.142Z,100.00
2019-02-22T09:08:33.782Z,100.00
2019-02-22T09:11:02.581Z,100.00
2019-02-22T09:13:42.821Z,100.00
2019-02-22T09:16:02.394Z,100.00
2019-02-22T09:18:31.614Z,100.00
2019-02-22T09:21:00.133Z,100.00
2019-02-22T09:23:29.089Z,100.00
2019-02-22T09:25:57.801Z,100.00
2019-02-22T09:28:26.404Z,100.00
2019-02-22T09:30:54.993Z,100.00
2019-02-22T09:33:23.577Z,100.00
2019-02-22T09:35:52.144Z,100.00
2019-02-22T09:38:20.841Z,100.00
2019-02-22T09:40:49.390Z,100.00
2019-02-22T09:43:18.205Z,98.05
2019-02-22T09:45:47.076Z,93.90
2019-02-22T09:48:16.088Z,95.45
2019-02-22T09:50:44.644Z,91.82
2019-02-22T09:53:13.245Z,87.42
2019-02-22T09:55:41.859Z,84.84
2019-02-22T09:58:10.491Z,83.40
2019-02-22T10:00:39.101Z,80.82
2019-02-22T10:03:07.812Z,77.43
2019-02-22T10:05:36.426Z,77.24
2019-02-22T10:08:05.526Z,77.58
2019-02-22T10:10:34.136Z,76.86
2019-02-22T10:13:02.755Z,72.90
2019-02-22T10:15:31.364Z,73.11
2019-02-22T10:18:00.729Z,70.45
2019-02-22T10:20:31.549Z,71.44
2019-02-22T10:23:00.446Z,69.58
2019-02-22T10:25:29.183Z,70.02
2019-02-22T10:27:57.941Z,67.28
2019-02-22T10:30:26.912Z,69.08
2019-02-22T10:32:55.500Z,66.54
2019-02-22T10:35:24.071Z,64.63
2019-02-22T10:37:52.669Z,65.51
2019-02-22T10:40:21.225Z,63.03
2019-02-22T10:42:49.840Z,60.29
2019-02-22T10:45:18.413Z,58.90
2019-02-22T10:47:47.350Z,56.54
2019-02-22T10:50:15.933Z,60.39
2019-02-22T10:52:44.555Z,60.53
2019-02-22T10:55:14.027Z,59.45
2019-02-22T10:57:44.552Z,56.88
2019-02-22T11:00:15.258Z,56.31
2019-02-22T11:02:43.871Z,56.92
2019-02-22T11:05:12.646Z,58.83
2019-02-22T11:07:41.375Z,55.15
2019-02-22T11:10:11.916Z,54.98
2019-02-22T11:12:40.536Z,45.95
2019-02-22T11:15:11.146Z,44.14
2019-02-22T11:17:39.688Z,45.02
2019-02-22T11:20:09.966Z,47.14
2019-02-22T11:22:38.558Z,48.83
2019-02-22T11:25:13.306Z,43.22
2019-02-22T11:27:42.865Z,44.41
2019-02-22T11:30:17.596Z,43.66
2019-02-22T11:32:46.190Z,40.63
2019-02-22T11:35:14.810Z,40.72
2019-02-22T11:37:43.513Z,41.43
2019-02-22T11:40:12.427Z,44.96
2019-02-22T11:42:42.138Z,44.84
2019-02-22T11:45:11.188Z,42.88
2019-02-22T11:47:39.817Z,40.62
2019-02-22T11:50:12.644Z,35.10
2019-02-22T11:52:41.382Z,34.20
2019-02-22T11:55:11.247Z,33.40
2019-02-22T11:57:40.069Z,39.08
2019-02-22T12:00:20.355Z,40.25
2019-02-22T12:02:49.025Z,38.35
2019-02-22T12:05:18.036Z,38.81
2019-02-22T12:07:46.742Z,38.28
2019-02-22T12:10:15.376Z,39.16
2019-02-22T12:12:44.104Z,37.05
2019-02-22T12:15:13.803Z,34.29
2019-02-22T12:17:42.528Z,30.88
2019-02-22T12:20:11.740Z,29.40
2019-02-22T12:22:41.064Z,34.71
2019-02-22T12:25:13.584Z,35.03
2019-02-22T12:27:42.178Z,35.80
2019-02-22T12:30:16.122Z,37.40
2019-02-22T12:32:44.728Z,40.09
2019-02-22T12:35:13.327Z,37.44
2019-02-22T12:37:42.030Z,33.85
2019-02-22T12:40:11.841Z,41.34
2019-02-22T12:42:40.914Z,39.33
2019-02-22T12:45:13.153Z,43.01
2019-02-22T12:47:41.771Z,45.13
2019-02-22T12:50:11.802Z,45.38
2019-02-22T12:52:40.475Z,42.96
2019-02-22T12:55:10.010Z,43.12
2019-02-22T12:57:38.629Z,44.54
2019-02-22T13:00:18.108Z,44.80
2019-02-22T13:02:46.735Z,41.46
2019-02-22T13:05:21.662Z,42.70
2019-02-22T13:07:52.567Z,39.85
2019-02-22T13:10:20.501Z,45.14
2019-02-22T13:12:49.112Z,42.43
2019-02-22T13:15:17.739Z,45.42
2019-02-22T13:17:46.385Z,44.07
2019-02-22T13:20:15.265Z,41.10
2019-02-22T13:22:43.962Z,41.63
2019-02-22T13:25:12.990Z,38.67
2019-02-22T13:27:41.651Z,36.80
2019-02-22T13:30:15.159Z,34.92
2019-02-22T13:32:43.717Z,37.15
2019-02-22T13:35:12.470Z,40.81
2019-02-22T13:37:41.368Z,41.65
2019-02-22T13:40:16.663Z,36.09
2019-02-22T13:42:45.230Z,37.24
2019-02-22T13:45:26.094Z,37.00
2019-02-22T13:47:45.238Z,36.59
2019-02-22T13:50:16.251Z,36.17
2019-02-22T13:52:44.836Z,33.53
2019-02-22T13:55:14.312Z,37.20
2019-02-22T13:57:42.860Z,39.73
2019-02-22T14:00:14.647Z,38.00
2019-02-22T14:02:43.378Z,37.02
2019-02-22T14:05:11.997Z,40.54
2019-02-22T14:07:50.968Z,42.83
2019-02-22T14:10:20.562Z,43.84
2019-02-22T14:12:49.358Z,43.20
2019-02-22T14:15:18.802Z,43.65
2019-02-22T14:17:47.643Z,44.91
2019-02-22T14:20:16.339Z,45.24
2019-02-22T14:22:45.698Z,45.56
2019-02-22T14:25:14.353Z,46.41
2019-02-22T14:27:42.953Z,46.75
2019-02-22T14:30:14.969Z,45.50
2019-02-22T14:32:44.015Z,44.82
2019-02-22T14:35:13.166Z,45.28
2019-02-22T14:37:41.890Z,46.54
2019-02-22T14:40:12.135Z,46.17
2019-02-22T14:42:40.655Z,46.89
2019-02-22T14:45:10.959Z,47.42
2019-02-22T14:47:39.537Z,46.52
2019-02-22T14:50:13.791Z,47.47
2019-02-22T14:52:42.395Z,46.40
2019-02-22T14:55:11.413Z,48.15
2019-02-22T14:57:40.124Z,47.72
2019-02-22T15:00:15.155Z,49.26
2019-02-22T15:02:43.699Z,49.58
2019-02-22T15:05:13.758Z,48.51
2019-02-22T15:07:42.797Z,47.15
2019-02-22T15:10:13.965Z,46.50
2019-02-22T15:12:43.554Z,47.14
2019-02-22T15:15:19.997Z,47.50
2019-02-22T15:17:53.517Z,49.04
2019-02-22T15:20:22.297Z,48.60
2019-02-22T15:22:50.891Z,49.27
2019-02-22T15:25:20.104Z,48.77
2019-02-22T15:27:48.577Z,48.61
2019-02-22T15:30:17.746Z,48.85
2019-02-22T15:32:46.372Z,49.27
2019-02-22T15:35:16.124Z,49.30
2019-02-22T15:37:44.642Z,49.90
2019-02-22T15:40:14.540Z,47.82
2019-02-22T15:42:43.083Z,49.36
2019-02-22T15:45:14.965Z,49.31
2019-02-22T15:47:43.726Z,49.19
2019-02-22T15:50:14.899Z,49.48
2019-02-22T15:52:44.187Z,49.03
2019-02-22T15:55:14.507Z,50.58
2019-02-22T15:57:43.219Z,50.52
2019-02-22T16:00:21.488Z,49.68
2019-02-22T16:02:50.059Z,50.27
2019-02-22T16:05:20.678Z,50.92
2019-02-22T16:07:49.406Z,49.66
2019-02-22T16:10:19.190Z,50.97
2019-02-22T16:12:48.038Z,51.28
2019-02-22T16:15:17.116Z,52.32
2019-02-22T16:17:45.790Z,51.08
2019-02-22T16:20:14.894Z,52.64
2019-02-22T16:22:43.762Z,53.79
2019-02-22T16:25:19.490Z,54.90
2019-02-22T16:27:42.746Z,53.85
2019-02-22T16:30:14.559Z,51.91
2019-02-22T16:32:43.096Z,53.83
2019-02-22T16:35:11.663Z,56.83
2019-02-22T16:37:40.365Z,54.90
2019-02-22T16:40:12.579Z,54.42
2019-02-22T16:42:41.264Z,57.75
2019-02-22T16:45:12.077Z,59.17
2019-02-22T16:47:41.532Z,58.89
2019-02-22T16:50:11.900Z,59.69
2019-02-22T16:52:40.626Z,62.53
2019-02-22T16:55:12.420Z,58.92
2019-02-22T16:57:41.437Z,60.30
2019-02-22T17:00:15.281Z,59.73
2019-02-22T17:02:43.849Z,58.75
2019-02-22T17:05:14.643Z,57.47
2019-02-22T17:07:43.278Z,58.71
2019-02-22T17:10:12.049Z,58.47
2019-02-22T17:12:40.700Z,58.80
2019-02-22T17:15:11.280Z,63.40
2019-02-22T17:17:40.286Z,59.98
2019-02-22T17:20:11.992Z,63.12
2019-02-22T17:22:40.723Z,61.91
2019-02-22T17:25:12.076Z,61.59
2019-02-22T17:27:40.718Z,63.51
2019-02-22T17:30:14.224Z,63.14
2019-02-22T17:32:42.894Z,62.67
2019-02-22T17:35:11.488Z,63.51
2019-02-22T17:37:40.235Z,61.62
2019-02-22T17:40:17.130Z,61.00
2019-02-22T17:42:45.719Z,61.92
2019-02-22T17:45:14.292Z,62.66
2019-02-22T17:47:43.095Z,62.06
2019-02-22T17:50:12.107Z,61.43
2019-02-22T17:52:40.746Z,65.50
2019-02-22T17:55:10.481Z,64.13
2019-02-22T17:57:39.245Z,66.72
2019-02-22T18:00:14.490Z,68.37
2019-02-22T18:02:43.082Z,64.77
2019-02-22T18:05:11.654Z,65.97
2019-02-22T18:07:40.669Z,65.06
2019-02-22T18:10:11.526Z,66.56
2019-02-22T18:12:40.118Z,63.91
2019-02-22T18:15:12.053Z,65.29
2019-02-22T18:17:42.586Z,72.82
2019-02-22T18:20:11.212Z,78.71
2019-02-22T18:22:39.849Z,81.19
2019-02-22T18:25:10.018Z,72.29
2019-02-22T18:27:39.938Z,70.96
2019-02-22T18:30:11.912Z,69.81
2019-02-22T18:32:40.653Z,70.77
2019-02-22T18:35:09.301Z,70.45
2019-02-22T18:37:38.420Z,78.79
2019-02-22T18:40:18.203Z,73.92
2019-02-22T18:42:47.101Z,73.56
2019-02-22T18:45:17.639Z,75.44
2019-02-22T18:47:46.479Z,75.21
2019-02-22T18:50:15.206Z,74.84
2019-02-22T18:52:44.253Z,77.20
2019-02-22T18:55:13.188Z,77.02
2019-02-22T18:57:41.831Z,79.83
2019-02-22T19:00:20.656Z,72.93
2019-02-22T19:02:49.568Z,71.95
2019-02-22T19:05:18.118Z,76.11
2019-02-22T19:07:46.957Z,78.31
2019-02-22T19:10:19.342Z,74.70
2019-02-22T19:12:47.967Z,76.22
2019-02-22T19:15:16.581Z,77.55
2019-02-22T19:17:45.222Z,81.43
2019-02-22T19:20:20.127Z,78.27
2019-02-22T19:22:48.758Z,80.59
2019-02-22T19:25:17.383Z,82.85
2019-02-22T19:27:47.334Z,81.34
2019-02-22T19:30:20.946Z,77.88
2019-02-22T19:32:49.924Z,78.31
2019-02-22T19:35:18.707Z,82.65
2019-02-22T19:37:47.390Z,77.96
2019-02-22T19:40:21.501Z,81.88
2019-02-22T19:42:50.195Z,81.12
2019-02-22T19:45:18.985Z,77.24
2019-02-22T19:47:47.595Z,73.86
2019-02-22T19:50:16.301Z,71.89
2019-02-22T19:52:44.964Z,71.70
2019-02-22T19:55:16.682Z,71.35
2019-02-22T19:57:45.393Z,72.12
2019-02-22T20:00:18.711Z,72.78
2019-02-22T20:02:47.278Z,70.79
2019-02-22T20:05:16.647Z,71.08
2019-02-22T20:07:45.433Z,70.52
2019-02-22T20:10:18.548Z,71.71
2019-02-22T20:12:47.405Z,71.53
2019-02-22T20:15:17.455Z,70.85
2019-02-22T20:17:53.721Z,71.37
2019-02-22T20:20:17.587Z,70.93
2019-02-22T20:22:46.130Z,71.21
2019-02-22T20:25:14.976Z,70.07
2019-02-22T20:27:44.063Z,70.37
2019-02-22T20:30:14.868Z,70.54
2019-02-22T20:32:43.924Z,71.02
2019-02-22T20:35:18.183Z,68.79
2019-02-22T20:37:52.747Z,69.11
2019-02-22T20:40:17.288Z,69.69
2019-02-22T20:42:46.486Z,68.81
2019-02-22T20:45:15.115Z,67.57
2019-02-22T20:47:44.740Z,66.99
2019-02-22T20:50:14.539Z,65.29
2019-02-22T20:52:43.214Z,67.70
2019-02-22T20:55:12.365Z,66.72
2019-02-22T20:57:41.091Z,65.94
2019-02-22T21:00:18.284Z,65.63
2019-02-22T21:02:46.824Z,63.92
2019-02-22T21:05:16.095Z,63.69
2019-02-22T21:07:44.946Z,64.26
2019-02-22T21:10:22.359Z,63.10
2019-02-22T21:12:51.247Z,65.05
2019-02-22T21:15:20.081Z,63.80
2019-02-22T21:17:49.347Z,65.89
2019-02-22T21:20:24.319Z,64.96
2019-02-22T21:22:53.121Z,63.54
2019-02-22T21:25:21.747Z,63.79
2019-02-22T21:27:50.449Z,64.06
2019-02-22T21:30:21.330Z,64.47
2019-02-22T21:32:49.967Z,63.89
2019-02-22T21:35:18.602Z,64.83
2019-02-22T21:37:47.222Z,64.22
2019-02-22T21:40:15.781Z,63.58
2019-02-22T21:42:44.560Z,64.28
2019-02-22T21:45:16.924Z,64.43
2019-02-22T21:47:54.195Z,64.74
2019-02-22T21:50:16.991Z,65.05
2019-02-22T21:52:45.601Z,64.49
2019-02-22T21:55:15.437Z,64.49
2019-02-22T21:57:43.992Z,65.78
2019-02-22T22:00:20.979Z,66.26
2019-02-22T22:02:49.763Z,64.83
2019-02-22T22:05:20.261Z,66.19
2019-02-22T22:07:48.965Z,65.41
2019-02-22T22:10:17.524Z,65.45
2019-02-22T22:12:46.369Z,65.60
2019-02-22T22:15:17.733Z,65.66
2019-02-22T22:17:46.384Z,66.66
2019-02-22T22:20:14.944Z,66.22
2019-02-22T22:22:43.667Z,69.12
2019-02-22T22:25:13.959Z,66.87
2019-02-22T22:27:42.544Z,69.30
2019-02-22T22:30:15.097Z,67.91
2019-02-22T22:32:43.742Z,69.52
2019-02-22T22:35:16.604Z,69.26
2019-02-22T22:37:45.194Z,70.67
2019-02-22T22:40:14.309Z,70.40
2019-02-22T22:42:42.962Z,71.89
2019-02-22T22:45:13.944Z,71.01
2019-02-22T22:47:42.629Z,71.36
2019-02-22T22:50:12.905Z,71.53
2019-02-22T22:52:41.611Z,71.78
2019-02-22T22:55:11.300Z,71.11
2019-02-22T22:57:40.200Z,72.18
2019-02-22T23:00:50.850Z,72.36
2019-02-22T23:03:20.379Z,72.73
2019-02-22T23:05:48.867Z,72.57
2019-02-22T23:08:17.597Z,72.79
2019-02-22T23:10:46.624Z,73.20
2019-02-22T23:13:15.271Z,73.46
2019-02-22T23:15:43.867Z,73.37
2019-02-22T23:18:12.475Z,72.47
2019-02-22T23:20:41.048Z,72.92
2019-02-22T23:23:09.635Z,73.62
2019-02-22T23:25:39.241Z,72.95
2019-02-22T23:28:07.876Z,74.40
2019-02-22T23:30:36.466Z,75.71
2019-02-22T23:33:05.098Z,74.86
2019-02-22T23:35:33.619Z,75.02
2019-02-22T23:38:02.270Z,78.62
2019-02-22T23:40:30.831Z,76.29
2019-02-22T23:42:59.791Z,77.39
2019-02-22T23:45:28.407Z,75.18
2019-02-22T23:47:57.023Z,73.39
2019-02-22T23:50:25.568Z,74.43
2019-02-22T23:52:54.189Z,74.35
2019-02-22T23:55:22.746Z,74.27
2019-02-22T23:57:51.361Z,73.16
